Time;durP1;ratioP1;P1;durP2;ratioP2;P2;SDS_P1;SDS_P2;PMS_P1;PMS_P2;Temp;Humidity;BMP_temperature;BMP_pressure;BME280_temperature;BME280_humidity;BME280_pressure;Samples;Min_cycle;Max_cycle;Signal;HPM_P1;HPM_P2
2022/09/20 00:01:09;;;;;;;1.92;1.73;;;;;;;12.31;73.80;96786.59;5047649;28;20057;-71
2022/09/20 00:03:38;;;;;;;5.20;2.10;;;;;;;12.64;72.75;96836.38;5048318;28;20052;-71
2022/09/20 00:06:07;;;;;;;6.85;2.55;;;;;;;12.72;72.44;96849.13;5047888;28;20132;-71
2022/09/20 00:08:34;;;;;;;2.85;1.80;;;;;;;12.50;71.85;96797.41;5047470;28;20085;-71
2022/09/20 00:11:06;;;;;;;1.60;1.48;;;;;;;12.27;71.80;96733.00;5047399;28;20248;-73
2022/09/20 00:13:34;;;;;;;1.75;1.60;;;;;;;12.97;71.61;96833.38;5046391;28;20507;-71
2022/09/20 00:16:11;;;;;;;3.22;2.08;;;;;;;13.07;70.38;96832.63;5047650;28;20095;-71
2022/09/20 00:18:39;;;;;;;3.05;2.00;;;;;;;12.84;70.14;96795.97;5047745;28;20076;-72
2022/09/20 00:21:06;;;;;;;3.40;1.65;;;;;;;12.75;72.68;96770.53;5047033;28;20045;-70
2022/09/20 00:23:32;;;;;;;2.45;1.90;;;;;;;12.82;74.23;96808.69;5045989;28;20176;-71
2022/09/20 00:26:02;;;;;;;2.72;1.90;;;;;;;12.37;72.65;96768.38;5045695;28;20507;-70
2022/09/20 00:28:30;;;;;;;1.85;1.75;;;;;;;12.56;73.17;96801.41;5047093;28;20472;-71
2022/09/20 00:30:57;;;;;;;2.60;1.67;;;;;;;12.64;72.04;96769.69;5047459;28;20603;-71
2022/09/20 00:35:06;;;;;;;5.68;2.00;;;;;;;12.87;73.62;96788.81;5047269;28;20053;-71
2022/09/20 00:36:11;;;;;;;5.30;2.17;;;;;;;12.28;76.19;96795.69;5047165;28;20134;-72
2022/09/20 00:38:38;;;;;;;2.72;1.83;;;;;;;11.72;79.03;96809.13;5047092;28;20079;-72
2022/09/20 00:41:05;;;;;;;2.33;1.95;;;;;;;10.62;81.41;96699.09;5046940;28;20132;-72
2022/09/20 00:43:41;;;;;;;2.30;1.45;;;;;;;11.37;81.32;96772.72;5045668;28;20087;-72
2022/09/20 00:46:40;;;;;;;3.03;1.63;;;;;;;9.53;79.82;96448.00;5046847;28;20156;-71
2022/09/20 00:49:13;;;;;;;2.22;1.98;;;;;;;11.89;80.36;96806.50;5046972;28;20131;-72
2022/09/20 00:51:44;;;;;;;3.00;1.92;;;;;;;11.99;79.95;96802.22;5045537;28;20087;-72
2022/09/20 00:54:14;;;;;;;3.83;1.80;;;;;;;11.73;79.47;96758.00;5046476;28;20057;-71
2022/09/20 00:56:45;;;;;;;7.32;2.72;;;;;;;11.98;78.38;96798.66;5046883;28;20496;-71
2022/09/20 00:59:27;;;;;;;2.58;1.80;;;;;;;12.09;76.12;96790.41;5047043;28;20048;-71
2022/09/20 01:02:08;;;;;;;3.40;1.80;;;;;;;11.70;75.94;96742.13;5046293;28;20443;-72
2022/09/20 01:04:38;;;;;;;2.72;1.65;;;;;;;11.30;76.44;96683.94;5046703;28;20053;-71
2022/09/20 01:07:08;;;;;;;2.70;1.65;;;;;;;11.99;76.25;96793.91;5046079;28;20053;-72
2022/09/20 01:09:34;;;;;;;2.65;1.67;;;;;;;12.00;76.73;96785.19;5045395;28;20068;-71
2022/09/20 01:12:05;;;;;;;2.75;1.60;;;;;;;11.98;76.17;96786.75;5044791;28;20538;-71
2022/09/20 01:14:33;;;;;;;2.03;1.60;;;;;;;12.02;75.62;96787.56;5046281;28;20587;-71
2022/09/20 01:17:04;;;;;;;2.08;1.60;;;;;;;11.24;75.64;96674.38;5046474;28;20053;-72
2022/09/20 01:19:52;;;;;;;1.95;1.80;;;;;;;11.86;75.69;96789.81;5044911;28;20045;-71
2022/09/20 01:22:46;;;;;;;2.17;1.80;;;;;;;11.65;75.89;96779.34;5044873;28;20131;-72
2022/09/20 01:25:20;;;;;;;2.17;1.70;;;;;;;11.53;76.47;96776.03;5046127;28;20053;-71
2022/09/20 01:27:52;;;;;;;2.72;1.83;;;;;;;11.54;76.98;96785.97;5044957;28;20152;-71
2022/09/20 01:30:25;;;;;;;2.25;1.73;;;;;;;11.59;76.23;96785.59;5046411;28;20135;-71
2022/09/20 01:32:55;;;;;;;2.03;1.80;;;;;;;11.66;74.78;96780.97;5045972;28;20049;-72
2022/09/20 01:35:24;;;;;;;1.48;1.38;;;;;;;10.97;74.83;96708.97;5046439;28;20049;-71
2022/09/20 01:37:59;;;;;;;1.95;1.33;;;;;;;11.57;74.87;96787.97;5045687;28;20565;-71
2022/09/20 01:41:05;;;;;;;1.85;1.67;;;;;;;10.82;76.47;96669.25;5044955;28;20136;-72
2022/09/20 01:43:51;;;;;;;2.97;1.75;;;;;;;11.66;75.38;96792.06;5042851;28;20053;-71
2022/09/20 01:46:30;;;;;;;2.90;1.80;;;;;;;11.35;76.68;96794.50;5044527;28;20091;-71
2022/09/20 01:49:12;;;;;;;1.98;1.60;;;;;;;11.38;76.80;96790.97;5046064;28;20157;-71
2022/09/20 01:52:09;;;;;;;1.77;1.55;;;;;;;11.18;78.53;96792.31;5044723;28;20117;-71
2022/09/20 01:54:41;;;;;;;4.05;2.00;;;;;;;11.24;79.35;96790.84;5042855;28;20129;-71
2022/09/20 01:57:29;;;;;;;5.88;1.90;;;;;;;11.32;78.79;96786.94;5045848;28;20088;-72
2022/09/20 02:00:12;;;;;;;3.47;2.33;;;;;;;11.32;78.45;96787.72;5044642;28;20134;-72
2022/09/20 02:02:57;;;;;;;4.20;2.17;;;;;;;10.85;78.99;96725.84;5045946;28;20144;-72
2022/09/20 02:05:52;;;;;;;1.83;1.67;;;;;;;10.94;77.99;96731.91;5044416;28;20646;-71
2022/09/20 02:08:37;;;;;;;2.30;1.75;;;;;;;11.38;77.71;96796.53;5044747;28;20056;-71
2022/09/20 02:11:15;;;;;;;14.88;4.07;;;;;;;11.18;79.63;96797.88;5044118;28;20143;-71
2022/09/20 02:14:10;;;;;;;10.75;3.47;;;;;;;11.17;80.24;96801.84;5044238;28;20511;-71
2022/09/20 02:16:56;;;;;;;5.28;2.67;;;;;;;11.14;80.41;96799.81;5045645;28;20139;-71
2022/09/20 02:19:35;;;;;;;4.05;2.38;;;;;;;11.17;80.51;96796.28;5045470;28;20463;-72
2022/09/20 02:22:24;;;;;;;2.40;2.00;;;;;;;10.70;81.25;96733.25;5044349;28;20140;-71
2022/09/20 02:25:17;;;;;;;6.18;2.17;;;;;;;10.78;81.23;96745.19;5044115;28;20127;-72
2022/09/20 02:27:53;;;;;;;3.03;1.80;;;;;;;11.01;81.80;96787.41;5044287;28;20134;-71
2022/09/20 02:30:25;;;;;;;4.22;1.95;;;;;;;10.98;80.64;96782.63;5044811;28;20084;-71
2022/09/20 02:33:00;;;;;;;2.67;2.05;;;;;;;10.94;80.77;96781.78;5045585;28;20136;-71
2022/09/20 02:35:39;;;;;;;1.90;1.80;;;;;;;10.69;82.40;96782.28;5043518;28;20123;-71
2022/09/20 02:38:44;;;;;;;2.08;1.75;;;;;;;10.62;83.16;96787.72;5045828;28;20140;-71
2022/09/20 02:41:20;;;;;;;3.13;1.60;;;;;;;10.53;83.38;96789.19;5044546;28;20139;-72
2022/09/20 02:43:58;;;;;;;4.60;1.77;;;;;;;10.51;82.65;96797.88;5044630;28;20651;-71
2022/09/20 02:46:34;;;;;;;1.70;1.23;;;;;;;9.99;82.99;96720.41;5044747;28;20114;-71
2022/09/20 02:49:20;;;;;;;2.60;1.50;;;;;;;10.42;83.43;96799.34;5045040;28;20131;-71
2022/09/20 02:52:19;;;;;;;2.55;1.48;;;;;;;10.37;84.00;96800.47;5044956;28;20068;-71
2022/09/20 02:54:57;;;;;;;2.25;1.40;;;;;;;9.90;84.11;96766.94;5044625;28;20535;-71
2022/09/20 02:57:48;;;;;;;3.85;1.63;;;;;;;10.11;83.99;96806.03;5044757;28;20057;-71
2022/09/20 03:00:25;;;;;;;1.70;1.60;;;;;;;9.94;85.61;96812.03;5044288;28;20075;-71
2022/09/20 03:03:22;;;;;;;2.25;1.70;;;;;;;9.98;85.60;96807.38;5044855;28;20141;-70
2022/09/20 03:06:07;;;;;;;1.92;1.50;;;;;;;9.96;84.25;96815.25;5042970;28;20182;-71
2022/09/20 03:08:57;;;;;;;2.45;1.50;;;;;;;9.91;85.19;96806.47;5044045;28;20114;-72
2022/09/20 03:12:23;;;;;;;2.72;1.55;;;;;;;9.04;86.46;96685.00;5044416;28;20053;-70
2022/09/20 03:15:10;;;;;;;1.95;1.42;;;;;;;9.71;86.51;96814.06;4982089;28;20136;-70
2022/09/20 03:17:51;;;;;;;5.80;1.80;;;;;;;9.66;86.28;96827.41;4966167;28;20133;-70
2022/09/20 03:20:33;;;;;;;2.47;1.35;;;;;;;9.68;85.81;96820.31;5025681;28;20486;-71
2022/09/20 03:23:13;;;;;;;2.00;1.80;;;;;;;9.62;85.63;96832.88;5044244;28;20532;-70
2022/09/20 03:25:50;;;;;;;2.50;2.00;;;;;;;9.53;85.29;96824.00;5044109;28;20084;-70
2022/09/20 03:28:19;;;;;;;4.25;1.95;;;;;;;9.35;87.45;96833.97;5043196;28;20056;-71
2022/09/20 03:31:02;;;;;;;3.22;2.33;;;;;;;9.34;88.30;96832.38;5043995;28;20456;-70
2022/09/20 03:33:51;;;;;;;6.73;2.27;;;;;;;9.35;88.69;96842.25;5043287;28;20080;-70
2022/09/20 03:36:26;;;;;;;2.83;1.77;;;;;;;9.46;87.38;96839.66;5044247;28;20088;-70
2022/09/20 03:39:05;;;;;;;2.10;1.85;;;;;;;8.81;86.38;96769.78;5044731;28;20111;-69
2022/09/20 03:41:51;;;;;;;4.30;1.40;;;;;;;9.40;86.54;96839.19;5044138;28;20076;-70
2022/09/20 03:44:53;;;;;;;2.20;1.80;;;;;;;9.44;87.54;96842.81;5042782;28;20081;-70
2022/09/20 03:47:54;;;;;;;1.70;1.40;;;;;;;9.39;87.68;96839.56;5044580;28;20063;-70
2022/09/20 03:50:42;;;;;;;2.67;1.50;;;;;;;9.35;88.37;96839.50;5044017;28;20088;-71
2022/09/20 03:53:27;;;;;;;2.78;1.83;;;;;;;9.39;87.12;96850.63;5044291;28;20053;-71
2022/09/20 03:56:14;;;;;;;2.58;1.70;;;;;;;9.38;87.32;96860.88;5042384;28;20674;-70
2022/09/20 03:58:53;;;;;;;20.60;2.35;;;;;;;9.28;87.46;96861.47;5044290;28;20057;-70
2022/09/20 04:01:44;;;;;;;5.63;1.65;;;;;;;9.23;87.65;96864.53;5042528;28;20099;-70
2022/09/20 04:04:24;;;;;;;7.25;2.40;;;;;;;9.18;87.54;96857.31;5044024;28;20080;-71
2022/09/20 04:07:11;;;;;;;5.53;2.40;;;;;;;8.70;87.81;96779.81;5042165;28;20132;-70
2022/09/20 04:10:03;;;;;;;4.88;2.63;;;;;;;9.12;90.88;96863.50;5043620;28;20412;-70
2022/09/20 04:12:57;;;;;;;7.07;4.97;;;;;;;9.18;92.89;96862.84;5042373;28;20056;-70
2022/09/20 04:15:30;;;;;;;3.63;2.97;;;;;;;9.21;91.04;96867.66;5043686;28;20128;-70
2022/09/20 04:18:18;;;;;;;4.93;2.63;;;;;;;9.21;90.40;96872.41;5044165;28;20363;-71
2022/09/20 04:20:56;;;;;;;6.28;3.92;;;;;;;8.74;89.63;96802.81;5042499;28;20132;-71
2022/09/20 04:23:53;;;;;;;12.15;6.00;;;;;;;9.12;89.11;96885.63;5043919;28;20107;-70
2022/09/20 04:26:35;;;;;;;6.57;4.60;;;;;;;9.10;89.05;96888.75;5042272;28;20053;-70
2022/09/20 04:29:18;;;;;;;6.40;2.65;;;;;;;9.20;89.79;96895.66;5046665;28;20115;-70
2022/09/20 04:31:52;;;;;;;;;;;;;;;9.23;89.51;96896.91;5047677;28;20099;-71
2022/09/20 04:37:48;;;;;;;4.38;2.58;;;;;;;9.06;88.41;96870.50;5046991;28;20087;-69
2022/09/20 04:40:27;;;;;;;4.18;2.33;;;;;;;9.28;88.87;96894.63;5046921;28;20132;-70
2022/09/20 04:43:31;;;;;;;4.28;2.30;;;;;;;9.28;88.82;96896.59;5047247;28;20048;-71
2022/09/20 04:46:15;;;;;;;6.25;2.10;;;;;;;9.47;87.30;96896.59;5046982;28;20060;-70
2022/09/20 04:49:16;;;;;;;2.80;2.00;;;;;;;9.51;88.00;96903.78;5047253;28;20060;-70
2022/09/20 04:52:26;;;;;;;2.90;2.50;;;;;;;9.65;86.88;96903.22;5046469;28;20053;-70
2022/09/20 04:55:21;;;;;;;3.83;2.00;;;;;;;9.69;85.95;96899.34;5043840;28;20056;-70
2022/09/20 04:58:26;;;;;;;2.95;1.83;;;;;;;9.64;86.19;96907.94;5045381;28;20165;-70
2022/09/20 05:01:15;;;;;;;3.42;1.98;;;;;;;9.88;85.15;96896.53;5046323;28;20091;-71
2022/09/20 05:04:01;;;;;;;4.20;1.80;;;;;;;9.99;84.74;96897.50;5046819;28;20088;-71
2022/09/20 05:07:06;;;;;;;3.65;1.83;;;;;;;10.00;84.45;96904.66;5046346;28;20049;-72
2022/09/20 05:09:51;;;;;;;5.95;2.50;;;;;;;10.09;83.93;96894.16;5044209;28;20096;-70
2022/09/20 05:12:23;;;;;;;6.28;3.20;;;;;;;10.14;83.25;96895.81;5045086;28;20118;-71
2022/09/20 05:15:15;;;;;;;4.32;2.85;;;;;;;10.15;83.33;96903.75;5046750;28;20049;-71
2022/09/20 05:18:13;;;;;;;6.93;2.95;;;;;;;10.29;84.25;96905.94;5045176;28;20057;-71
2022/09/20 05:21:15;;;;;;;5.75;2.50;;;;;;;10.49;84.15;96905.47;5045268;28;20056;-71
2022/09/20 05:23:51;;;;;;;4.35;2.42;;;;;;;10.53;84.18;96898.00;5033984;28;20064;-71
2022/09/20 05:26:17;;;;;;;4.53;2.33;;;;;;;10.73;83.17;96905.00;5046284;28;20136;-71
2022/09/20 05:29:21;;;;;;;4.70;2.78;;;;;;;10.88;82.94;96900.47;5046430;28;20073;-71
2022/09/20 05:32:26;;;;;;;7.03;2.63;;;;;;;11.19;81.74;96904.84;5045875;28;20056;-71
2022/09/20 05:35:24;;;;;;;3.42;2.60;;;;;;;10.88;78.61;96783.28;5051051;28;20079;-73
2022/09/20 05:38:12;;;;;;;5.80;2.40;;;;;;;11.85;76.37;96902.84;5046339;28;20088;-72
2022/09/20 05:40:54;;;;;;;6.63;2.90;;;;;;;11.87;75.20;96908.00;5046021;28;20159;-72
2022/09/20 05:43:31;;;;;;;3.67;2.30;;;;;;;11.87;76.08;96919.09;5045974;28;20072;-72
2022/09/20 05:46:00;;;;;;;9.90;2.70;;;;;;;12.03;76.54;96889.91;5046026;28;20142;-72
2022/09/20 05:48:54;;;;;;;8.52;2.50;;;;;;;12.10;76.51;96894.72;5046087;28;20156;-72
2022/09/20 05:51:55;;;;;;;5.82;2.40;;;;;;;12.19;76.25;96895.19;5044979;28;20404;-72
2022/09/20 05:54:59;;;;;;;3.00;2.15;;;;;;;12.13;76.23;96894.75;5040186;28;20075;-65
2022/09/20 05:57:34;;;;;;;4.10;2.17;;;;;;;9.75;76.90;96554.94;5025843;28;20085;-63
2022/09/20 06:00:06;;;;;;;3.17;2.47;;;;;;;12.15;76.86;96891.59;5038043;28;20148;-71
2022/09/20 06:02:46;;;;;;;2.83;2.63;;;;;;;12.06;76.44;96896.69;5052257;28;20049;-62
2022/09/20 06:05:24;;;;;;;3.63;3.30;;;;;;;11.39;76.94;96793.34;5045243;28;20106;-69
2022/09/20 06:07:50;;;;;;;3.90;2.50;;;;;;;12.29;76.37;96891.72;5043317;28;20057;-69
2022/09/20 06:10:51;;;;;;;2.40;2.20;;;;;;;12.59;75.38;96900.66;5041984;28;20088;-64
2022/09/20 06:13:43;;;;;;;3.08;2.15;;;;;;;12.77;74.37;96904.34;5038937;28;20057;-71
2022/09/20 06:16:27;;;;;;;4.18;2.58;;;;;;;12.21;74.39;96795.63;5025131;28;20092;-66
2022/09/20 06:19:19;;;;;;;3.25;2.50;;;;;;;13.06;72.55;96896.97;5023715;28;20061;-68
2022/09/20 06:21:54;;;;;;;6.80;2.95;;;;;;;12.72;71.34;96810.22;5025183;28;20049;-68
2022/09/20 06:24:36;;;;;;;6.72;3.47;;;;;;;13.48;71.10;96886.03;5042380;28;20135;-74
2022/09/20 06:27:09;;;;;;;3.60;2.85;;;;;;;13.31;68.26;96815.25;5033771;28;20483;-68
2022/09/20 06:29:42;;;;;;;3.55;2.83;;;;;;;13.61;67.22;96834.38;5050866;28;20141;-66
2022/09/20 06:32:09;;;;;;;2.60;2.40;;;;;;;13.47;65.82;96762.81;5046408;28;20088;-66
2022/09/20 06:34:36;;;;;;;4.05;2.28;;;;;;;14.16;63.76;96832.03;5044675;28;20152;-62
2022/09/20 06:43:06;;;;;;;2.08;1.98;;;;;;;15.12;58.51;96888.06;5045974;28;20114;-66
2022/09/20 06:45:33;;;;;;;2.92;2.55;;;;;;;14.83;54.20;96855.06;5044056;28;20132;-63
2022/09/20 06:48:01;;;;;;;2.88;2.40;;;;;;;15.21;52.77;96882.03;5043813;28;20053;-72
2022/09/20 06:50:27;;;;;;;3.15;2.65;;;;;;;14.61;52.37;96775.44;5062342;28;20122;-74
2022/09/20 06:52:54;;;;;;;13.48;3.80;;;;;;;14.52;52.70;96733.28;5064013;28;20106;-67
2022/09/20 06:55:28;;;;;;;3.65;2.22;;;;;;;14.84;52.07;96773.00;5064046;28;20049;-69
2022/09/20 06:57:55;;;;;;;2.90;2.70;;;;;;;15.57;51.21;96889.06;5051116;28;20060;-64
2022/09/20 07:00:22;;;;;;;1.90;1.80;;;;;;;14.27;51.03;96699.94;5042628;28;20409;-69
2022/09/20 07:02:48;;;;;;;1.92;1.83;;;;;;;14.71;51.09;96791.38;5043978;28;20494;-74
2022/09/20 07:05:18;;;;;;;3.67;1.85;;;;;;;15.59;51.80;96913.81;5044116;28;20091;-73
2022/09/20 07:07:46;;;;;;;2.20;2.10;;;;;;;15.14;50.64;96870.91;5044157;28;20110;-74
2022/09/20 07:10:14;;;;;;;2.08;1.95;;;;;;;15.62;49.87;96913.78;5043589;28;20107;-74
2022/09/20 07:12:40;;;;;;;2.53;2.00;;;;;;;15.04;49.21;96827.09;5043296;28;20057;-73
2022/09/20 07:15:08;;;;;;;2.30;2.17;;;;;;;15.71;48.95;96922.50;5043844;28;20049;-74
2022/09/20 07:17:34;;;;;;;2.10;2.00;;;;;;;13.41;48.38;96536.25;5042629;28;20135;-68
2022/09/20 07:20:02;;;;;;;2.10;2.00;;;;;;;15.94;48.21;96917.22;5043866;28;20149;-69
2022/09/20 07:22:28;;;;;;;2.28;2.17;;;;;;;15.70;46.51;96853.91;5044035;28;20061;-69
2022/09/20 07:24:55;;;;;;;2.83;2.30;;;;;;;16.11;46.21;96907.91;5042554;28;20103;-72
2022/09/20 07:27:22;;;;;;;2.03;1.90;;;;;;;15.66;45.85;96822.44;5043979;28;20132;-69
2022/09/20 07:29:54;;;;;;;1.98;1.88;;;;;;;16.35;45.11;96917.31;5044128;28;20049;-74
2022/09/20 07:32:21;;;;;;;2.67;2.40;;;;;;;15.45;46.18;96830.91;5042520;28;20146;-74
2022/09/20 07:34:48;;;;;;;2.55;2.35;;;;;;;16.56;45.17;96918.00;5043540;28;20053;-74
2022/09/20 07:37:17;;;;;;;2.83;2.28;;;;;;;16.25;44.73;96818.38;5044014;28;20076;-72
2022/09/20 07:39:45;;;;;;;2.63;2.17;;;;;;;16.48;44.78;96838.19;5042396;28;20048;-61
2022/09/20 07:42:12;;;;;;;2.20;2.10;;;;;;;17.05;44.02;96893.53;5043771;28;20158;-70
2022/09/20 07:44:42;;;;;;;2.70;2.45;;;;;;;17.45;42.88;96923.53;5052190;28;20159;-73
2022/09/20 07:47:10;;;;;;;2.22;2.13;;;;;;;17.37;42.58;96905.19;5057169;28;20080;-64
2022/09/20 07:49:36;;;;;;;2.45;2.35;;;;;;;14.23;42.01;96442.00;5044185;28;20065;-66
2022/09/20 07:52:03;;;;;;;2.92;2.70;;;;;;;16.89;42.34;96840.16;5043810;28;20624;-67
2022/09/20 07:54:29;;;;;;;6.45;5.20;;;;;;;17.29;41.86;96915.66;5042368;28;20146;-73
2022/09/20 07:56:56;;;;;;;2.70;2.50;;;;;;;17.34;41.75;96940.41;5043961;28;20048;-68
2022/09/20 07:59:24;;;;;;;4.75;2.63;;;;;;;17.07;42.02;96888.34;5043827;28;20052;-70
2022/09/20 08:01:51;;;;;;;2.33;2.22;;;;;;;17.09;42.49;96886.69;5044180;28;20060;-68
2022/09/20 08:04:17;;;;;;;2.65;2.45;;;;;;;16.79;41.96;96813.88;5047356;28;20076;-69
2022/09/20 08:06:45;;;;;;;3.28;2.47;;;;;;;17.45;42.10;96923.53;5047372;28;20595;-69
2022/09/20 08:09:13;;;;;;;4.20;2.45;;;;;;;17.21;42.92;96877.78;5047079;28;20056;-66
2022/09/20 08:11:42;;;;;;;4.32;3.95;;;;;;;17.13;42.44;96881.06;5047398;28;20068;-67
2022/09/20 08:14:16;;;;;;;11.45;7.30;;;;;;;16.79;42.88;96808.28;5065480;28;20121;-66
2022/09/20 08:16:46;;;;;;;4.32;3.17;;;;;;;16.37;42.42;96809.50;5067038;28;20602;-67
2022/09/20 08:19:19;;;;;;;6.45;4.05;;;;;;;16.70;43.91;96877.09;5067325;28;20055;-72
2022/09/20 08:21:47;;;;;;;3.97;3.13;;;;;;;17.12;44.05;96915.88;5055988;28;20126;-65
2022/09/20 08:24:15;;;;;;;14.85;7.80;;;;;;;16.21;43.61;96756.13;5045784;28;20136;-72
2022/09/20 08:26:42;;;;;;;3.90;3.45;;;;;;;17.30;42.89;96916.47;5051892;28;20536;-66
2022/09/20 08:29:10;;;;;;;3.17;2.90;;;;;;;16.61;41.77;96818.88;5066628;28;20110;-73
2022/09/20 08:31:39;;;;;;;3.20;3.00;;;;;;;17.33;41.96;96893.22;5066796;28;20076;-72
2022/09/20 08:34:07;;;;;;;2.63;2.42;;;;;;;17.29;40.25;96868.06;5062723;28;20076;-71
2022/09/20 08:36:37;;;;;;;5.00;4.05;;;;;;;17.20;41.02;96850.22;5046485;28;20470;-68
2022/09/20 08:39:04;;;;;;;2.70;2.50;;;;;;;17.63;40.45;96902.47;5055075;28;20143;-62
2022/09/20 08:42:00;;;;;;;3.67;3.38;;;;;;;17.96;41.23;96886.81;5035335;28;20064;-70
2022/09/20 08:44:34;;;;;;;2.50;2.30;;;;;;;17.92;40.86;96864.44;5064459;28;20149;-68
2022/09/20 08:47:08;;;;;;;4.03;3.13;;;;;;;18.51;40.31;96897.63;5065706;28;20080;-66
2022/09/20 08:49:36;;;;;;;3.78;2.88;;;;;;;17.89;40.41;96774.84;5052539;28;20075;-64
2022/09/20 08:52:04;;;;;;;2.63;2.50;;;;;;;17.99;39.31;96846.72;5066222;28;20146;-66
2022/09/20 08:54:36;;;;;;;2.42;2.20;;;;;;;17.80;38.06;96761.34;5044711;28;20127;-64
2022/09/20 08:57:12;;;;;;;11.02;4.25;;;;;;;18.69;39.32;96882.06;5046038;28;20136;-67
2022/09/20 08:59:39;;;;;;;2.90;2.70;;;;;;;18.19;38.29;96822.41;5053798;28;20484;-71
2022/09/20 09:02:18;;;;;;;3.28;2.17;;;;;;;18.37;37.41;96887.38;5046319;28;20163;-70
2022/09/20 09:04:45;;;;;;;2.65;2.45;;;;;;;17.73;37.54;96761.47;5047858;28;20059;-73
2022/09/20 09:07:15;;;;;;;2.08;1.83;;;;;;;18.42;36.54;96875.72;5044866;28;20215;-71
2022/09/20 09:09:45;;;;;;;2.22;2.03;;;;;;;18.29;36.76;96821.41;5054170;28;20096;-68
2022/09/20 09:12:28;;;;;;;2.50;2.40;;;;;;;17.93;35.92;96741.91;5051210;28;20131;-71
2022/09/20 09:15:02;;;;;;;2.22;2.13;;;;;;;18.28;35.65;96803.00;5045398;28;20110;-72
2022/09/20 09:17:30;;;;;;;2.40;2.30;;;;;;;18.69;35.94;96817.53;5045292;28;20132;-73
2022/09/20 09:20:00;;;;;;;2.38;2.17;;;;;;;18.71;35.66;96809.50;5051859;28;20066;-72
2022/09/20 09:22:34;;;;;;;2.28;2.10;;;;;;;19.35;34.80;96870.81;5057812;28;20104;-74
2022/09/20 09:25:18;;;;;;;2.28;2.13;;;;;;;19.40;35.69;96862.69;5058197;28;20056;-72
2022/09/20 09:27:54;;;;;;;3.40;3.20;;;;;;;19.13;35.64;96847.16;5066418;28;20064;-73
2022/09/20 09:30:28;;;;;;;2.28;2.17;;;;;;;17.81;35.08;96673.25;5045935;28;20409;-72
2022/09/20 09:33:13;;;;;;;2.10;2.00;;;;;;;19.36;34.80;96859.16;5032586;28;20061;-73
2022/09/20 09:35:40;;;;;;;1.98;1.88;;;;;;;18.81;34.48;96813.31;5024194;28;20111;-73
2022/09/20 09:38:20;;;;;;;6.25;4.10;;;;;;;19.29;35.44;96842.47;5025409;28;20053;-74
2022/09/20 09:40:57;;;;;;;2.78;2.67;;;;;;;19.73;34.38;96845.97;5030246;28;20119;-75
2022/09/20 09:43:31;;;;;;;3.22;2.92;;;;;;;19.50;34.71;96754.94;5046121;28;20063;-76
2022/09/20 09:46:22;;;;;;;2.42;2.33;;;;;;;19.11;34.33;96698.00;5043986;28;20148;-72
2022/09/20 09:49:19;;;;;;;2.83;2.63;;;;;;;19.90;34.41;96856.03;5041174;28;20124;-72
2022/09/20 09:52:02;;;;;;;2.90;2.22;;;;;;;18.76;35.30;96671.47;5030025;28;20566;-74
2022/09/20 09:54:36;;;;;;;2.88;2.63;;;;;;;19.83;35.99;96844.94;5039433;28;20230;-73
2022/09/20 09:57:05;;;;;;;5.65;3.92;;;;;;;17.60;35.53;96507.56;5043898;28;20581;-75
2022/09/20 09:59:42;;;;;;;2.38;2.15;;;;;;;19.79;35.12;96847.81;5046448;28;20064;-61
2022/09/20 10:02:17;;;;;;;2.17;2.08;;;;;;;19.76;35.14;96839.47;5051299;28;20573;-72
2022/09/20 10:04:56;;;;;;;2.10;2.00;;;;;;;19.70;35.43;96841.19;5045242;28;20053;-64
2022/09/20 10:08:01;;;;;;;5.22;4.25;;;;;;;19.78;35.76;96842.63;5064435;28;20157;-64
2022/09/20 10:10:31;;;;;;;2.15;2.03;;;;;;;17.74;35.14;96498.88;5021304;28;20112;-68
2022/09/20 10:13:22;;;;;;;4.22;3.80;;;;;;;19.94;33.84;96840.66;5037037;28;20473;-71
2022/09/20 10:15:52;;;;;;;2.08;1.92;;;;;;;19.40;34.16;96743.91;5045214;28;20470;-71
2022/09/20 10:18:26;;;;;;;6.55;3.15;;;;;;;20.09;33.90;96841.13;5046045;28;20084;-68
2022/09/20 10:21:06;;;;;;;2.63;2.53;;;;;;;19.99;33.77;96831.72;5043440;28;20534;-69
2022/09/20 10:23:59;;;;;;;2.17;2.03;;;;;;;19.13;36.27;96755.31;5055630;28;20106;-67
2022/09/20 10:26:52;;;;;;;3.60;2.00;;;;;;;20.20;34.82;96836.06;5059252;28;21994;-67
2022/09/20 10:30:01;;;;;;;2.05;1.95;;;;;;;20.43;34.85;96833.06;5032494;28;20535;-72
2022/09/20 10:32:50;;;;;;;2.00;1.90;;;;;;;20.40;34.45;96839.59;5044613;28;20076;-63
2022/09/20 10:35:41;;;;;;;2.60;2.40;;;;;;;20.60;33.82;96827.00;5045882;28;20561;-67
2022/09/20 10:38:18;;;;;;;2.20;2.10;;;;;;;20.07;34.89;96826.69;5034150;28;20067;-68
2022/09/20 10:43:59;;;;;;;3.25;2.25;;;;;;;20.43;36.63;96836.69;5042763;28;20512;-69
2022/09/20 10:46:43;;;;;;;4.60;2.63;;;;;;;20.15;36.97;96822.53;5042263;28;20061;-70
2022/09/20 10:49:48;;;;;;;2.95;2.75;;;;;;;20.31;36.54;96809.25;5042306;28;20772;-69
2022/09/20 10:52:34;;;;;;;5.43;4.22;;;;;;;19.65;37.84;96813.63;5043462;28;20049;-71
2022/09/20 10:55:30;;;;;;;17.35;7.43;;;;;;;19.81;37.35;96808.00;5044226;28;20504;-68
2022/09/20 10:58:26;;;;;;;2.85;2.63;;;;;;;18.82;37.49;96692.22;5043295;28;20887;-68
2022/09/20 11:01:00;;;;;;;3.33;3.03;;;;;;;19.25;38.12;96813.63;5043822;28;20516;-67
2022/09/20 11:03:32;;;;;;;;;;;;;;;19.35;37.86;96818.25;5045119;28;20147;-71
2022/09/20 11:06:05;;;;;;;3.25;2.95;;;;;;;19.36;38.44;96811.41;5042579;28;19966;-70
2022/09/20 11:08:36;;;;;;;10.45;5.65;;;;;;;19.19;39.01;96806.91;5042480;28;20057;-70
2022/09/20 11:11:28;;;;;;;3.42;2.65;;;;;;;19.40;38.48;96811.34;5042552;28;20136;-68
2022/09/20 11:14:04;;;;;;;2.70;2.50;;;;;;;19.29;38.22;96800.34;5043867;28;20045;-68
2022/09/20 11:16:54;;;;;;;4.28;3.75;;;;;;;19.31;38.35;96789.47;5042167;28;20500;-70
2022/09/20 11:19:55;;;;;;;2.15;2.03;;;;;;;19.54;38.40;96786.53;5042549;28;20163;-69
2022/09/20 11:22:33;;;;;;;7.47;3.20;;;;;;;19.73;37.83;96770.09;5043558;28;20076;-69
2022/09/20 11:25:12;;;;;;;3.17;2.10;;;;;;;17.72;37.85;96495.75;5047075;28;20076;-68
2022/09/20 11:27:57;;;;;;;3.22;2.38;;;;;;;20.19;37.52;96800.72;5063934;28;20594;-69
2022/09/20 11:30:23;;;;;;;2.40;2.20;;;;;;;20.38;35.09;96803.44;5053802;28;20424;-68
2022/09/20 11:33:05;;;;;;;2.30;2.20;;;;;;;20.51;34.22;96801.50;5047819;28;20522;-67
2022/09/20 11:35:58;;;;;;;5.88;2.60;;;;;;;20.71;34.21;96798.56;5043366;28;20084;-65
2022/09/20 11:38:39;;;;;;;2.88;2.10;;;;;;;20.93;34.35;96791.13;5047064;28;20131;-69
2022/09/20 11:41:18;;;;;;;2.67;2.30;;;;;;;21.02;33.96;96791.31;5040196;28;20570;-67
2022/09/20 11:43:46;;;;;;;2.25;2.15;;;;;;;20.80;33.70;96762.13;5043825;28;20490;-65
2022/09/20 11:46:37;;;;;;;2.30;2.20;;;;;;;21.24;33.77;96780.22;5062848;28;20071;-69
2022/09/20 11:49:10;;;;;;;2.05;2.00;;;;;;;20.93;33.55;96751.69;5040911;28;21554;-64
2022/09/20 11:52:07;;;;;;;2.70;2.50;;;;;;;20.90;33.76;96777.94;5047143;28;20489;-69
2022/09/20 11:54:58;;;;;;;2.60;2.50;;;;;;;20.85;33.88;96737.03;5047737;28;20084;-69
2022/09/20 11:57:25;;;;;;;5.85;2.53;;;;;;;20.68;33.44;96675.59;5027663;28;20115;-63
2022/09/20 11:59:56;;;;;;;2.47;2.38;;;;;;;20.91;33.50;96734.47;5030231;28;20111;-71
2022/09/20 12:02:33;;;;;;;2.50;2.40;;;;;;;21.00;33.65;96765.63;5047025;28;20106;-69
2022/09/20 12:05:02;;;;;;;2.50;2.40;;;;;;;20.37;33.31;96699.78;5046570;28;20056;-69
2022/09/20 12:07:42;;;;;;;2.35;2.25;;;;;;;20.51;34.19;96716.28;5048832;28;20119;-67
2022/09/20 12:10:29;;;;;;;2.70;2.60;;;;;;;20.74;33.87;96747.00;5048339;28;20075;-67
2022/09/20 12:13:17;;;;;;;2.30;2.20;;;;;;;20.99;33.77;96769.69;5027067;28;20082;-69
2022/09/20 12:15:45;;;;;;;3.88;2.30;;;;;;;21.07;33.49;96759.75;5051323;28;20052;-68
2022/09/20 12:18:33;;;;;;;2.15;2.05;;;;;;;21.11;34.02;96771.72;5046902;28;20152;-68
2022/09/20 12:21:01;;;;;;;2.28;2.17;;;;;;;21.10;34.25;96770.16;5047359;28;20605;-68
2022/09/20 12:23:37;;;;;;;2.17;2.08;;;;;;;21.10;33.89;96769.38;5047628;28;20080;-68
2022/09/20 12:26:21;;;;;;;1.88;1.80;;;;;;;21.03;34.04;96773.16;5056027;28;20145;-70
2022/09/20 12:28:49;;;;;;;2.90;2.70;;;;;;;20.69;34.42;96744.75;5065480;28;20095;-66
2022/09/20 12:31:25;;;;;;;2.65;2.55;;;;;;;20.90;34.52;96772.28;5066945;28;20144;-64
2022/09/20 12:34:24;;;;;;;2.70;2.30;;;;;;;20.81;34.25;96780.59;5057624;28;20092;-66
2022/09/20 12:36:56;;;;;;;2.42;2.33;;;;;;;20.81;34.71;96777.78;5052092;28;20076;-68
2022/09/20 12:39:28;;;;;;;2.33;2.22;;;;;;;20.71;34.50;96826.72;5044282;28;20053;-69
2022/09/20 12:42:11;;;;;;;2.72;2.55;;;;;;;20.55;34.63;96767.66;5047818;28;20110;-67